createdAt,value
2022-09-12T00:20:30.227Z,97510.28
2022-09-12T00:22:57.264Z,97513.50
2022-09-12T00:25:23.256Z,97503.69
2022-09-12T00:27:50.032Z,97502.84
2022-09-12T00:30:16.064Z,97507.78
2022-09-12T00:32:42.068Z,97498.41
2022-09-12T00:35:09.018Z,97495.78
2022-09-12T00:37:35.052Z,97491.34
2022-09-12T00:40:01.142Z,97498.75
2022-09-12T00:42:27.923Z,97508.44
2022-09-12T00:44:53.977Z,97500.91
2022-09-12T00:47:20.002Z,97500.41
2022-09-12T00:49:46.893Z,97506.59
2022-09-12T00:52:13.098Z,97503.13
2022-09-12T00:54:39.104Z,97512.63
2022-09-12T00:57:05.133Z,97505.16
2022-09-12T00:59:32.241Z,97501.31
2022-09-12T01:01:58.404Z,97500.63
2022-09-12T01:04:25.435Z,97496.97
2022-09-12T01:06:51.507Z,97501.19
2022-09-12T01:09:17.580Z,97500.47
2022-09-12T01:11:43.589Z,97489.19
2022-09-12T01:14:09.689Z,97488.09
2022-09-12T01:16:36.542Z,97492.44
2022-09-12T01:19:03.165Z,97481.97
2022-09-12T01:21:29.234Z,97483.00
2022-09-12T01:23:55.319Z,97480.78
2022-09-12T01:26:22.257Z,97473.72
2022-09-12T01:28:49.158Z,97481.88
2022-09-12T01:31:16.049Z,97479.34
2022-09-12T01:33:42.752Z,97479.59
2022-09-12T01:36:08.859Z,97469.16
2022-09-12T01:38:35.615Z,97468.22
2022-09-12T01:41:01.629Z,97475.44
2022-09-12T01:43:27.696Z,97473.09
2022-09-12T01:45:54.715Z,97474.53
2022-09-12T01:48:21.617Z,97476.91
2022-09-12T01:50:48.520Z,97479.38
2022-09-12T01:53:15.325Z,97484.13
2022-09-12T01:55:41.413Z,97489.03
2022-09-12T01:58:07.457Z,97480.44
2022-09-12T02:00:35.155Z,97473.72
2022-09-12T02:03:01.707Z,97475.16
2022-09-12T02:05:28.104Z,97478.25
2022-09-12T02:07:55.010Z,97478.41
2022-09-12T02:10:21.037Z,97483.00
2022-09-12T02:12:47.095Z,97478.19
2022-09-12T02:15:14.087Z,97465.94
2022-09-12T02:17:42.246Z,97461.94
2022-09-12T02:20:08.306Z,97461.66
2022-09-12T02:22:34.391Z,97461.16
2022-09-12T02:25:00.397Z,97462.91
2022-09-12T02:27:27.360Z,97461.47
2022-09-12T02:29:53.419Z,97461.00
2022-09-12T02:32:19.441Z,97467.50
2022-09-12T02:34:46.237Z,97460.19
2022-09-12T02:37:12.316Z,97459.91
2022-09-12T02:39:41.095Z,97453.31
2022-09-12T02:42:10.476Z,97456.44
2022-09-12T02:44:37.573Z,97459.47
2022-09-12T02:47:03.711Z,97460.28
2022-09-12T02:49:29.914Z,97457.84
2022-09-12T02:51:56.803Z,97463.00
2022-09-12T02:54:23.010Z,97454.88
2022-09-12T02:56:49.012Z,97452.38
2022-09-12T02:59:17.843Z,97452.06
2022-09-12T03:01:44.071Z,97448.50
2022-09-12T03:04:10.170Z,97447.72
2022-09-12T03:06:37.356Z,97438.91
2022-09-12T03:09:03.480Z,97437.94
2022-09-12T03:14:10.817Z,97439.84
2022-09-12T05:23:59.736Z,97481.44
2022-09-12T05:26:26.239Z,97481.53
2022-09-12T05:28:52.221Z,97490.38
2022-09-12T05:31:18.168Z,97496.84
2022-09-12T05:33:44.876Z,97497.66
2022-09-12T05:36:10.830Z,97499.84
2022-09-12T05:38:36.797Z,97497.66
2022-09-12T05:41:02.740Z,97492.34
2022-09-12T05:43:28.683Z,97498.25
2022-09-12T05:45:54.639Z,97498.91
2022-09-12T05:48:20.611Z,97495.66
2022-09-12T05:50:47.261Z,97496.91
2022-09-12T05:53:13.269Z,97504.09
2022-09-12T05:55:39.227Z,97505.00
2022-09-12T05:58:06.043Z,97506.09
2022-09-12T06:00:33.612Z,97494.84
2022-09-12T06:02:59.697Z,97497.84
2022-09-12T06:08:10.685Z,97503.63
2022-09-12T06:10:36.698Z,97493.78
2022-09-12T06:13:02.624Z,97494.81
2022-09-12T06:15:28.629Z,97492.88
2022-09-12T06:17:54.570Z,97500.81
2022-09-12T06:20:20.559Z,97494.50
2022-09-12T06:22:47.396Z,97490.22
2022-09-12T06:25:13.334Z,97495.84
2022-09-12T06:27:39.292Z,97495.88
2022-09-12T06:30:05.977Z,97501.94
2022-09-12T06:32:31.942Z,97493.94
2022-09-12T06:34:57.875Z,97504.53
2022-09-12T06:37:24.748Z,97504.88
2022-09-12T06:39:50.723Z,97500.94
2022-09-12T06:42:16.711Z,97500.56
2022-09-12T06:44:42.634Z,97496.69
2022-09-12T06:47:08.584Z,97491.22
2022-09-12T06:49:34.590Z,97484.00
2022-09-12T06:52:00.523Z,97493.00
2022-09-12T06:54:26.825Z,97481.41
2022-09-12T06:56:52.800Z,97487.91
2022-09-12T06:59:18.778Z,97482.13
2022-09-12T07:01:45.673Z,97483.78
2022-09-12T07:04:11.720Z,97482.22
2022-09-12T07:06:37.912Z,97491.16
2022-09-12T07:09:03.897Z,97495.50
2022-09-12T07:11:30.549Z,97500.19
2022-09-12T07:16:22.521Z,97493.44
2022-09-12T07:18:48.527Z,97487.50
2022-09-12T07:21:14.484Z,97486.81
2022-09-12T07:23:40.442Z,97481.75
2022-09-12T07:26:06.453Z,97488.81
2022-09-12T07:28:33.114Z,97493.13
2022-09-12T07:30:59.487Z,97487.66
2022-09-12T07:33:27.104Z,97481.97
2022-09-12T07:35:53.375Z,97481.84
2022-09-12T07:38:19.695Z,97482.59
2022-09-12T07:40:47.145Z,97473.06
2022-09-12T07:43:13.258Z,97489.63
2022-09-12T09:23:28.591Z,97460.28
2022-09-12T09:25:54.610Z,97456.53
2022-09-12T09:28:20.546Z,97454.97
2022-09-12T09:30:46.568Z,97458.56
2022-09-12T09:33:12.545Z,97462.81
2022-09-12T09:35:39.262Z,97451.47
2022-09-12T09:38:05.239Z,97451.13
2022-09-12T09:40:31.248Z,97456.13
2022-09-12T09:42:57.209Z,97447.25
2022-09-12T09:45:23.807Z,97443.84
2022-09-12T09:47:49.774Z,97449.47
2022-09-12T09:50:15.725Z,97444.81
2022-09-12T09:52:41.661Z,97438.66
2022-09-12T09:55:07.627Z,97441.59
2022-09-12T09:57:33.565Z,97437.84
2022-09-12T09:59:59.555Z,97432.59
2022-09-12T10:02:26.338Z,97422.66
2022-09-12T10:04:52.278Z,97424.38
2022-09-12T10:07:18.240Z,97426.28
2022-09-12T10:09:44.799Z,97422.41
2022-09-12T10:12:10.820Z,97406.34
2022-09-12T10:14:36.793Z,97410.75
2022-09-12T10:17:03.519Z,97405.88
2022-09-12T10:19:29.508Z,97404.66
2022-09-12T10:21:55.458Z,97405.69
2022-09-12T10:24:21.411Z,97401.28
2022-09-12T10:26:47.475Z,97400.66
2022-09-12T10:29:13.474Z,97396.44
2022-09-12T10:31:39.408Z,97387.63
2022-09-12T10:34:05.383Z,97392.75
2022-09-12T10:36:32.178Z,97386.06
2022-09-12T10:38:58.109Z,97385.66
2022-09-12T10:41:24.974Z,97376.25
2022-09-12T10:43:50.912Z,97389.03
2022-09-12T10:46:16.918Z,97387.13
2022-09-12T10:48:42.890Z,97390.16
2022-09-12T10:51:09.065Z,97387.31
2022-09-12T10:53:35.798Z,97378.66
2022-09-12T10:56:01.789Z,97380.47
2022-09-12T10:58:27.760Z,97369.53
2022-09-12T11:00:54.480Z,97369.53
2022-09-12T11:03:20.508Z,97368.44
2022-09-12T11:05:46.455Z,97367.59
2022-09-12T11:08:13.244Z,97367.19
2022-09-12T11:10:43.772Z,97363.84
2022-09-12T11:13:10.861Z,97356.94
2022-09-12T11:15:36.871Z,97358.47
2022-09-12T11:18:02.852Z,97355.88
2022-09-12T11:20:28.916Z,97354.25
2022-09-12T11:22:54.866Z,97351.78
2022-09-12T11:25:21.027Z,97348.53
2022-09-12T11:27:47.087Z,97335.72
2022-09-12T11:30:13.130Z,97332.19
2022-09-12T11:32:39.175Z,97338.78
2022-09-12T11:35:05.183Z,97345.84
2022-09-12T11:37:31.929Z,97338.00
2022-09-12T11:39:57.903Z,97338.84
2022-09-12T11:42:23.912Z,97341.47
2022-09-12T11:44:50.746Z,97343.97
2022-09-12T11:47:16.723Z,97340.91
2022-09-12T11:49:42.791Z,97337.41
2022-09-12T11:52:08.823Z,97338.53
2022-09-12T11:54:35.441Z,97339.59
2022-09-12T11:57:01.489Z,97327.56
2022-09-12T11:59:27.422Z,97342.09
2022-09-12T12:01:53.856Z,97335.63
2022-09-12T12:04:20.149Z,97336.47
2022-09-12T12:06:46.577Z,97345.19
2022-09-12T12:09:13.010Z,97333.53
2022-09-12T12:11:40.045Z,97331.66
2022-09-12T12:16:47.830Z,97333.03
2022-09-12T14:29:13.247Z,97238.44
2022-09-12T14:31:39.860Z,97240.53
2022-09-12T14:34:06.811Z,97241.25
2022-09-12T14:36:33.079Z,97231.47
2022-09-12T14:38:59.056Z,97232.81
2022-09-12T14:41:25.010Z,97234.13
2022-09-12T14:43:51.601Z,97238.31
2022-09-12T14:46:17.561Z,97232.69
2022-09-12T14:48:44.188Z,97227.94
2022-09-12T14:51:10.276Z,97227.38
2022-09-12T14:53:36.290Z,97226.03
2022-09-12T14:56:03.233Z,97225.31
2022-09-12T14:58:29.158Z,97225.22
2022-09-12T15:00:55.113Z,97215.75
2022-09-12T15:03:21.091Z,97217.53
2022-09-12T15:05:47.019Z,97220.59
2022-09-12T15:08:13.915Z,97213.94
2022-09-12T15:10:41.889Z,97214.41
2022-09-12T15:13:07.838Z,97217.16
2022-09-12T15:15:33.849Z,97209.59
2022-09-12T15:18:02.378Z,97216.63
2022-09-12T15:20:31.821Z,97218.91
2022-09-12T15:22:57.761Z,97213.00
2022-09-12T15:25:23.710Z,97219.97
2022-09-12T15:27:50.639Z,97220.97
2022-09-12T15:30:16.607Z,97222.22
2022-09-12T15:32:42.614Z,97221.53
2022-09-12T15:35:09.275Z,97222.50
2022-09-12T15:37:35.555Z,97219.00
2022-09-12T15:40:01.679Z,97216.50
2022-09-12T15:42:28.493Z,97219.56
2022-09-12T15:44:54.423Z,97224.41
2022-09-12T15:47:21.192Z,97226.94
2022-09-12T15:49:48.089Z,97218.09
2022-09-12T15:52:14.036Z,97230.19
2022-09-12T15:54:40.002Z,97235.63
2022-09-12T15:57:06.654Z,97225.81
2022-09-12T15:59:32.877Z,97228.94
2022-09-12T16:01:58.876Z,97225.69
2022-09-12T16:04:24.846Z,97229.88
2022-09-12T16:06:50.854Z,97222.50
2022-09-12T16:09:16.950Z,97222.78
2022-09-12T16:11:43.798Z,97234.00
2022-09-12T16:14:09.806Z,97238.00
2022-09-12T16:16:36.267Z,97229.31
2022-09-12T16:19:02.204Z,97230.31
2022-09-12T16:21:28.186Z,97232.03
2022-09-12T16:23:54.156Z,97229.78
2022-09-12T16:26:20.169Z,97231.47
2022-09-12T16:28:46.578Z,97233.38
2022-09-12T16:31:13.613Z,97229.75
2022-09-12T16:33:41.623Z,97228.22
2022-09-12T16:36:07.570Z,97235.72
2022-09-12T16:38:34.404Z,97236.97
2022-09-12T16:41:00.370Z,97244.03
2022-09-12T16:43:26.299Z,97237.28
2022-09-12T16:45:52.309Z,97248.03
2022-09-12T16:48:18.703Z,97245.06
2022-09-12T16:50:45.528Z,97254.59
2022-09-12T16:53:11.509Z,97248.94
2022-09-12T16:55:37.448Z,97245.78
2022-09-12T16:58:04.310Z,97257.94
2022-09-12T17:00:30.292Z,97253.34
2022-09-12T17:02:56.301Z,97248.41
2022-09-12T17:05:22.281Z,97249.47
2022-09-12T17:07:48.575Z,97253.84
2022-09-12T17:10:14.835Z,97248.38
2022-09-12T17:12:42.389Z,97249.25
2022-09-12T17:15:08.666Z,97251.25
2022-09-12T17:17:34.966Z,97254.72
2022-09-12T17:20:01.133Z,97256.88
2022-09-12T17:22:27.366Z,97258.19
2022-09-12T19:14:08.662Z,97365.31
2022-09-12T19:16:34.586Z,97365.59
2022-09-12T19:19:01.300Z,97370.41
2022-09-12T19:21:27.322Z,97369.03
2022-09-12T19:23:53.296Z,97363.13
2022-09-12T19:26:19.821Z,97366.34
2022-09-12T19:28:45.844Z,97362.31
2022-09-12T19:31:11.817Z,97366.34
2022-09-12T19:33:37.826Z,97370.09
2022-09-12T19:36:03.809Z,97364.16
2022-09-12T19:38:30.264Z,97370.84
2022-09-12T19:40:56.434Z,97364.16
2022-09-12T19:43:22.375Z,97371.13
2022-09-12T19:45:49.007Z,97363.34
2022-09-12T19:48:15.022Z,97370.28
2022-09-12T19:50:40.971Z,97372.97
2022-09-12T19:53:06.912Z,97378.31
2022-09-12T19:55:33.543Z,97374.28
2022-09-12T19:57:59.489Z,97369.72
2022-09-12T20:00:25.466Z,97372.56
2022-09-12T20:02:52.325Z,97375.47
2022-09-12T20:05:18.318Z,97381.13
2022-09-12T20:07:44.255Z,97389.16
2022-09-12T20:10:11.029Z,97389.16
2022-09-12T20:12:36.985Z,97387.50
2022-09-12T20:15:02.949Z,97384.69
2022-09-12T20:17:29.634Z,97390.03
2022-09-12T20:19:55.561Z,97385.16
2022-09-12T20:22:21.515Z,97385.91
2022-09-12T20:24:48.240Z,97388.34
2022-09-12T20:27:14.385Z,97386.22
2022-09-12T20:29:40.327Z,97384.59
2022-09-12T20:32:06.274Z,97383.22
2022-09-12T20:34:32.242Z,97385.91
2022-09-12T20:36:58.834Z,97390.03
2022-09-12T20:39:24.794Z,97392.13
2022-09-12T20:41:51.504Z,97386.75
2022-09-12T20:44:17.487Z,97393.47
2022-09-12T20:46:43.484Z,97390.56
2022-09-12T20:49:09.526Z,97397.00
2022-09-12T20:51:35.499Z,97400.38
2022-09-12T20:54:02.107Z,97393.59
2022-09-12T20:56:28.134Z,97402.34
2022-09-12T20:58:54.124Z,97399.75
2022-09-12T21:01:20.304Z,97398.16
2022-09-12T21:03:46.393Z,97404.28
2022-09-12T21:06:12.409Z,97408.72
2022-09-12T21:08:39.120Z,97408.59
2022-09-12T21:11:05.092Z,97402.56
2022-09-12T21:13:31.080Z,97403.94
2022-09-12T21:15:57.803Z,97398.41
2022-09-12T21:18:23.964Z,97398.59
2022-09-12T21:20:49.925Z,97401.88
2022-09-12T21:23:15.899Z,97394.72
2022-09-12T21:25:51.922Z,97404.69
2022-09-12T21:28:18.293Z,97409.09
2022-09-12T21:30:44.252Z,97405.91
2022-09-12T21:33:10.897Z,97399.25
2022-09-12T21:35:36.891Z,97403.22
2022-09-12T21:38:02.819Z,97401.84
2022-09-12T21:40:29.519Z,97396.78
2022-09-12T21:42:55.516Z,97395.63
2022-09-12T21:45:21.459Z,97406.00
2022-09-12T21:47:47.416Z,97400.09
2022-09-12T21:50:13.664Z,97399.06
2022-09-12T21:52:41.356Z,97394.84
2022-09-12T21:55:07.571Z,97399.47
2022-09-12T21:57:33.844Z,97401.13
2022-09-12T22:00:00.092Z,97401.03
2022-09-12T22:02:26.465Z,97392.78
2022-09-12T22:04:52.728Z,97402.34
2022-09-12T22:07:19.898Z,97402.75
